createdAt,value
2022-09-23T00:00:59.370Z,80.70
2022-09-23T00:03:28.165Z,80.52
2022-09-23T00:06:22.180Z,80.22
2022-09-23T00:08:49.646Z,80.08
2022-09-23T00:11:21.659Z,80.17
2022-09-23T00:13:50.256Z,80.09
2022-09-23T00:16:20.894Z,80.29
2022-09-23T00:18:49.318Z,79.87
2022-09-23T00:21:15.723Z,80.39
2022-09-23T00:23:43.156Z,80.07
2022-09-23T00:26:11.996Z,80.39
2022-09-23T00:28:38.488Z,80.28
2022-09-23T00:31:10.132Z,80.20
2022-09-23T00:33:36.987Z,80.71
2022-09-23T00:36:09.211Z,80.82
2022-09-23T00:38:35.625Z,80.65
2022-09-23T00:41:02.784Z,80.88
2022-09-23T00:43:47.386Z,80.67
2022-09-23T00:46:35.254Z,80.98
2022-09-23T00:49:06.805Z,81.06
2022-09-23T00:51:38.546Z,80.93
2022-09-23T00:54:06.448Z,80.84
2022-09-23T00:56:34.472Z,80.77
2022-09-23T00:59:01.744Z,80.82
2022-09-23T01:01:28.250Z,80.56
2022-09-23T01:03:56.921Z,81.05
2022-09-23T01:06:23.424Z,80.93
2022-09-23T01:08:50.676Z,80.89
2022-09-23T01:11:45.441Z,81.17
2022-09-23T01:14:32.091Z,81.35
2022-09-23T01:17:28.280Z,81.14
2022-09-23T01:20:19.275Z,81.02
2022-09-23T01:23:01.440Z,81.39
2022-09-23T01:25:47.114Z,81.27
2022-09-23T01:28:57.113Z,81.64
2022-09-23T01:31:37.978Z,81.63
2022-09-23T01:34:19.851Z,81.67
2022-09-23T01:36:56.866Z,81.70
2022-09-23T01:39:36.731Z,81.88
2022-09-23T01:42:29.487Z,81.72
2022-09-23T01:45:12.924Z,81.78
2022-09-23T01:47:49.692Z,81.57
2022-09-23T01:50:40.692Z,81.91
2022-09-23T01:53:14.586Z,81.87
2022-09-23T01:55:47.442Z,81.75
2022-09-23T01:58:26.959Z,81.67
2022-09-23T02:00:59.311Z,81.86
2022-09-23T02:03:33.883Z,81.83
2022-09-23T02:06:11.422Z,81.85
2022-09-23T02:09:13.674Z,82.02
2022-09-23T02:11:41.955Z,82.03
2022-09-23T02:14:19.105Z,82.04
2022-09-23T02:16:49.977Z,82.35
2022-09-23T02:19:27.059Z,82.01
2022-09-23T02:22:05.591Z,81.89
2022-09-23T02:24:37.412Z,81.57
2022-09-23T02:27:30.207Z,81.55
2022-09-23T02:30:18.981Z,81.51
2022-09-23T02:33:01.081Z,81.40
2022-09-23T02:35:37.024Z,81.54
2022-09-23T02:38:12.422Z,81.56
2022-09-23T02:40:54.276Z,81.56
2022-09-23T02:43:32.099Z,81.74
2022-09-23T02:45:58.539Z,82.00
2022-09-23T02:48:49.104Z,82.23
2022-09-23T02:51:15.843Z,82.16
2022-09-23T02:53:43.201Z,82.19
2022-09-23T02:56:19.493Z,81.86
2022-09-23T02:58:48.327Z,81.59
2022-09-23T03:01:35.952Z,81.66
2022-09-23T03:04:15.890Z,81.33
2022-09-23T03:07:01.609Z,81.67
2022-09-23T03:09:34.902Z,81.81
2022-09-23T03:12:49.217Z,82.18
2022-09-23T03:15:30.226Z,82.64
2022-09-23T03:18:31.563Z,82.50
2022-09-23T03:21:07.154Z,82.23
2022-09-23T03:23:36.979Z,82.32
2022-09-23T03:26:12.560Z,82.43
2022-09-23T03:28:43.588Z,82.67
2022-09-23T03:31:12.652Z,82.75
2022-09-23T03:33:43.802Z,82.95
2022-09-23T03:36:31.589Z,82.96
2022-09-23T03:39:04.251Z,83.15
2022-09-23T03:41:37.846Z,82.97
2022-09-23T03:44:04.779Z,83.13
2022-09-23T03:46:33.374Z,83.33
2022-09-23T03:49:08.114Z,83.70
2022-09-23T03:51:34.441Z,83.86
2022-09-23T03:54:00.796Z,84.06
2022-09-23T03:56:27.841Z,83.82
2022-09-23T03:58:54.156Z,83.50
2022-09-23T04:01:20.928Z,83.50
2022-09-23T04:03:47.276Z,83.68
2022-09-23T04:06:13.600Z,83.47
2022-09-23T04:08:39.954Z,83.18
2022-09-23T04:11:06.723Z,83.14
2022-09-23T04:13:34.268Z,83.18
2022-09-23T04:16:00.708Z,83.31
2022-09-23T04:18:27.114Z,83.15
2022-09-23T04:20:58.684Z,83.52
2022-09-23T04:23:26.554Z,83.25
2022-09-23T04:25:53.728Z,83.01
2022-09-23T04:28:21.246Z,83.00
2022-09-23T04:30:48.762Z,83.36
2022-09-23T04:33:15.900Z,83.43
2022-09-23T04:35:43.413Z,83.95
2022-09-23T04:38:12.494Z,83.61
2022-09-23T04:40:39.167Z,83.61
2022-09-23T04:43:05.821Z,84.13
2022-09-23T04:45:32.163Z,84.52
2022-09-23T04:47:59.221Z,84.44
2022-09-23T04:50:26.372Z,84.59
2022-09-23T04:52:53.915Z,84.49
2022-09-23T04:55:20.275Z,83.98
2022-09-23T04:57:46.974Z,83.91
2022-09-23T05:00:15.121Z,83.91
2022-09-23T05:02:45.880Z,83.95
2022-09-23T05:05:13.242Z,84.23
2022-09-23T05:07:40.335Z,84.27
2022-09-23T05:10:07.626Z,84.10
2022-09-23T05:12:33.993Z,84.28
2022-09-23T05:15:00.463Z,84.17
2022-09-23T05:17:26.880Z,84.41
2022-09-23T05:19:53.240Z,83.90
2022-09-23T05:22:19.588Z,83.95
2022-09-23T05:24:46.057Z,84.06
2022-09-23T05:27:12.684Z,83.91
2022-09-23T05:29:39.128Z,83.44
2022-09-23T05:32:05.519Z,83.95
2022-09-23T05:34:32.257Z,83.75
2022-09-23T05:36:58.580Z,83.47
2022-09-23T05:39:24.961Z,83.47
2022-09-23T05:41:52.845Z,83.42
2022-09-23T05:44:19.212Z,83.43
2022-09-23T05:46:45.595Z,83.51
2022-09-23T05:49:12.096Z,83.56
2022-09-23T05:51:38.569Z,83.65
2022-09-23T05:54:05.721Z,83.65
2022-09-23T05:56:33.703Z,83.76
2022-09-23T05:59:01.736Z,83.78
2022-09-23T06:01:32.148Z,83.98
2022-09-23T06:03:59.553Z,83.97
2022-09-23T06:06:31.842Z,83.99
2022-09-23T06:08:59.378Z,83.96
2022-09-23T06:11:26.440Z,83.99
2022-09-23T06:14:00.836Z,83.73
2022-09-23T06:16:28.496Z,83.36
2022-09-23T06:18:54.972Z,83.15
2022-09-23T06:21:21.291Z,83.08
2022-09-23T06:23:47.664Z,82.96
2022-09-23T06:26:15.655Z,83.04
2022-09-23T06:28:44.081Z,83.20
2022-09-23T06:31:15.668Z,83.44
2022-09-23T06:33:44.777Z,83.38
2022-09-23T06:36:13.402Z,83.58
2022-09-23T06:38:48.419Z,83.28
2022-09-23T06:41:16.088Z,83.61
2022-09-23T06:43:42.455Z,83.31
2022-09-23T06:46:08.903Z,83.70
2022-09-23T06:48:35.614Z,83.19
2022-09-23T06:51:04.849Z,83.01
2022-09-23T06:53:34.710Z,83.02
2022-09-23T06:56:04.024Z,82.76
2022-09-23T06:58:31.832Z,82.83
2022-09-23T07:01:07.271Z,82.50
2022-09-23T07:03:34.347Z,82.21
2022-09-23T07:06:01.831Z,81.92
2022-09-23T07:08:29.600Z,81.79
2022-09-23T07:10:58.013Z,81.81
2022-09-23T07:13:24.980Z,81.35
2022-09-23T07:15:56.051Z,81.64
2022-09-23T07:18:25.613Z,80.96
2022-09-23T07:20:53.089Z,80.66
2022-09-23T07:23:19.883Z,80.36
2022-09-23T07:25:50.163Z,80.61
2022-09-23T07:28:16.709Z,80.38
2022-09-23T07:30:56.407Z,79.50
2022-09-23T07:33:32.139Z,79.55
2022-09-23T07:35:59.113Z,79.61
2022-09-23T07:38:31.299Z,78.96
2022-09-23T07:41:06.917Z,78.47
2022-09-23T07:43:33.379Z,78.25
2022-09-23T07:46:03.017Z,78.24
2022-09-23T07:48:34.136Z,77.84
2022-09-23T07:51:05.585Z,78.08
2022-09-23T07:53:32.360Z,77.71
2022-09-23T07:55:59.352Z,77.37
2022-09-23T07:58:26.142Z,76.50
2022-09-23T08:00:53.569Z,76.26
2022-09-23T08:03:20.271Z,75.76
2022-09-23T08:05:46.681Z,75.17
2022-09-23T08:08:14.041Z,74.28
2022-09-23T08:10:40.442Z,73.96
2022-09-23T08:13:06.894Z,73.79
2022-09-23T08:15:33.594Z,73.41
2022-09-23T08:18:00.788Z,72.75
2022-09-23T08:20:47.764Z,72.66
2022-09-23T08:23:16.087Z,72.37
2022-09-23T08:25:46.301Z,71.61
2022-09-23T08:28:18.601Z,71.26
2022-09-23T08:30:48.817Z,71.09
2022-09-23T08:33:19.636Z,69.99
2022-09-23T08:35:49.188Z,70.23
2022-09-23T08:38:15.523Z,69.33
2022-09-23T08:40:48.417Z,69.37
2022-09-23T08:43:27.316Z,69.29
2022-09-23T08:45:57.293Z,68.50
2022-09-23T08:48:36.884Z,67.85
2022-09-23T08:51:12.564Z,66.69
2022-09-23T08:53:40.302Z,66.63
2022-09-23T08:56:14.766Z,66.50
2022-09-23T08:59:03.488Z,66.22
2022-09-23T09:01:42.274Z,66.08
2022-09-23T09:04:36.163Z,65.63
2022-09-23T09:07:35.699Z,64.83
2022-09-23T09:10:12.771Z,64.70
2022-09-23T09:12:46.228Z,64.45
2022-09-23T09:15:25.150Z,64.59
2022-09-23T09:17:59.165Z,64.27
2022-09-23T09:20:32.244Z,64.52
2022-09-23T09:23:02.583Z,63.69
2022-09-23T09:25:49.421Z,63.69
2022-09-23T09:28:30.772Z,64.04
2022-09-23T09:31:00.696Z,63.91
2022-09-23T09:33:36.833Z,63.35
2022-09-23T09:36:24.839Z,63.32
2022-09-23T09:38:53.236Z,64.20
2022-09-23T09:41:21.425Z,63.30
2022-09-23T09:43:57.603Z,62.69
2022-09-23T09:46:39.271Z,61.83
2022-09-23T09:49:41.054Z,62.69
2022-09-23T09:52:32.283Z,62.77
2022-09-23T09:55:26.773Z,61.93
2022-09-23T09:58:05.252Z,61.37
2022-09-23T10:00:38.160Z,61.77
2022-09-23T10:03:33.016Z,61.17
2022-09-23T10:06:00.065Z,61.00
2022-09-23T10:08:34.330Z,59.58
2022-09-23T10:11:15.029Z,59.07
2022-09-23T10:13:42.493Z,59.29
2022-09-23T10:16:09.409Z,59.71
2022-09-23T10:18:50.184Z,59.33
2022-09-23T10:21:26.934Z,58.49
2022-09-23T10:23:58.235Z,57.94
2022-09-23T10:26:46.142Z,59.97
2022-09-23T10:29:32.257Z,58.27
2022-09-23T10:32:27.354Z,57.77
2022-09-23T10:35:08.948Z,57.90
2022-09-23T10:37:48.113Z,57.20
2022-09-23T10:40:36.262Z,56.25
2022-09-23T10:43:30.166Z,56.78
2022-09-23T10:46:23.558Z,56.56
2022-09-23T10:49:21.964Z,56.35
2022-09-23T10:52:00.115Z,56.48
2022-09-23T10:55:04.261Z,57.54
2022-09-23T10:57:52.152Z,58.12
2022-09-23T11:00:41.655Z,58.33
2022-09-23T11:03:32.122Z,56.70
2022-09-23T11:06:11.267Z,57.81
2022-09-23T11:09:13.109Z,57.95
2022-09-23T11:12:03.640Z,57.50
2022-09-23T11:14:52.963Z,57.05
2022-09-23T11:17:31.608Z,56.78
2022-09-23T11:20:22.996Z,56.71
2022-09-23T11:23:07.627Z,56.73
2022-09-23T11:25:56.345Z,56.12
2022-09-23T11:28:51.985Z,56.13
2022-09-23T11:31:37.264Z,57.05
2022-09-23T11:34:22.204Z,57.99
2022-09-23T11:37:07.053Z,56.78
2022-09-23T11:39:50.260Z,56.34
2022-09-23T11:42:25.968Z,56.39
2022-09-23T11:45:00.075Z,56.30
2022-09-23T11:47:31.221Z,57.07
2022-09-23T11:50:03.339Z,56.27
2022-09-23T11:52:47.001Z,56.62
2022-09-23T11:55:21.494Z,56.41
2022-09-23T11:57:56.866Z,55.10
2022-09-23T12:00:26.615Z,54.65
2022-09-23T12:03:04.544Z,55.36
2022-09-23T12:05:39.002Z,55.68
2022-09-23T12:08:16.280Z,55.64
2022-09-23T12:10:52.848Z,53.52
2022-09-23T12:13:31.271Z,54.58
2022-09-23T12:16:09.934Z,55.24
2022-09-23T12:18:38.894Z,54.57
2022-09-23T12:21:46.273Z,54.80
2022-09-23T12:24:27.017Z,54.35
2022-09-23T12:26:58.881Z,53.54
2022-09-23T12:32:01.244Z,54.01
2022-09-23T12:34:47.849Z,53.87
2022-09-23T12:37:24.099Z,54.22
2022-09-23T12:39:50.663Z,54.66
2022-09-23T12:42:20.517Z,56.02
2022-09-23T12:44:48.780Z,55.27
2022-09-23T12:47:15.034Z,53.56
2022-09-23T12:49:43.617Z,53.68
2022-09-23T12:52:17.184Z,53.28
2022-09-23T12:54:48.300Z,54.10
2022-09-23T12:57:33.196Z,54.20
2022-09-23T13:00:22.443Z,53.63
2022-09-23T13:03:11.369Z,52.89
2022-09-23T13:06:09.794Z,52.61
2022-09-23T13:08:39.077Z,53.07
2022-09-23T13:11:13.353Z,52.20
2022-09-23T13:13:45.816Z,52.89
2022-09-23T13:16:33.055Z,52.90
2022-09-23T13:19:01.537Z,51.60
2022-09-23T13:21:43.164Z,52.96
2022-09-23T13:24:12.436Z,51.66
2022-09-23T13:26:44.717Z,51.53
2022-09-23T13:29:19.186Z,53.43
2022-09-23T13:31:47.377Z,52.30
2022-09-23T13:34:16.323Z,52.21
2022-09-23T13:36:44.913Z,53.17
2022-09-23T13:39:25.340Z,52.85
2022-09-23T13:41:55.627Z,52.39
2022-09-23T13:44:22.304Z,53.76
2022-09-23T13:46:52.036Z,53.46
2022-09-23T13:49:24.497Z,54.02
2022-09-23T13:51:54.010Z,54.02
2022-09-23T13:54:46.238Z,53.58
2022-09-23T13:57:30.693Z,53.18
2022-09-23T14:00:15.200Z,52.74
2022-09-23T14:02:46.793Z,54.50
2022-09-23T14:05:21.660Z,53.26
2022-09-23T14:07:49.716Z,52.97
2022-09-23T14:10:23.232Z,53.35
2022-09-23T14:12:51.199Z,52.55
2022-09-23T14:15:19.448Z,52.53
2022-09-23T14:17:52.285Z,52.28
2022-09-23T14:20:21.492Z,52.67
2022-09-23T14:22:47.981Z,52.21
2022-09-23T14:25:16.670Z,52.13
2022-09-23T14:27:44.827Z,53.04
2022-09-23T14:30:18.481Z,53.39
2022-09-23T14:32:47.776Z,52.75
2022-09-23T14:35:21.989Z,52.88
2022-09-23T14:38:11.701Z,53.61
2022-09-23T14:40:51.569Z,53.99
2022-09-23T14:43:24.857Z,53.86
2022-09-23T14:45:55.232Z,54.57
2022-09-23T14:48:28.330Z,54.62
2022-09-23T14:50:57.606Z,55.36
2022-09-23T14:53:32.867Z,56.02
2022-09-23T14:56:08.334Z,55.74
2022-09-23T14:58:58.909Z,55.51
2022-09-23T15:01:31.807Z,56.23
2022-09-23T15:04:17.998Z,56.88
2022-09-23T15:07:02.258Z,57.29
2022-09-23T15:09:33.024Z,57.58
2022-09-23T15:12:02.218Z,57.88
2022-09-23T15:14:38.409Z,58.36
2022-09-23T15:17:17.229Z,58.83
2022-09-23T15:19:44.068Z,58.82
2022-09-23T15:22:11.038Z,59.11
2022-09-23T15:24:43.264Z,59.36
2022-09-23T15:27:30.900Z,59.40
2022-09-23T15:30:15.407Z,59.66
2022-09-23T15:32:43.624Z,60.03
2022-09-23T15:35:25.504Z,60.19
2022-09-23T15:37:56.058Z,60.63
2022-09-23T15:40:27.575Z,61.01
2022-09-23T15:42:57.043Z,60.98
2022-09-23T15:45:40.229Z,61.07
2022-09-23T15:48:11.670Z,61.28
2022-09-23T15:50:40.344Z,61.09
2022-09-23T15:53:07.060Z,61.57
2022-09-23T15:55:33.756Z,61.61
2022-09-23T15:58:00.484Z,62.10
2022-09-23T16:00:27.096Z,62.45
2022-09-23T16:02:53.993Z,62.93
2022-09-23T16:05:32.990Z,63.54
2022-09-23T16:08:02.812Z,63.70
2022-09-23T16:10:33.947Z,64.26
2022-09-23T16:13:02.132Z,64.68
2022-09-23T16:15:31.327Z,64.52
2022-09-23T16:17:58.862Z,64.76
2022-09-23T16:20:29.531Z,65.49
2022-09-23T16:23:03.937Z,65.16
2022-09-23T16:25:35.825Z,65.89
2022-09-23T16:28:04.322Z,66.36
2022-09-23T16:30:33.107Z,66.58
2022-09-23T16:33:00.851Z,67.14
2022-09-23T16:35:29.034Z,67.45
2022-09-23T16:37:55.525Z,68.74
2022-09-23T16:40:23.469Z,68.58
2022-09-23T16:42:52.305Z,69.19
2022-09-23T16:45:22.882Z,69.62
2022-09-23T16:47:51.296Z,70.03
2022-09-23T16:50:20.613Z,70.13
2022-09-23T16:52:46.974Z,71.32
2022-09-23T16:55:14.337Z,71.38
2022-09-23T16:57:41.821Z,71.86
2022-09-23T17:00:32.456Z,72.69
2022-09-23T17:03:18.035Z,72.73
2022-09-23T17:05:46.783Z,73.63
2022-09-23T17:08:14.696Z,74.53
2022-09-23T17:10:45.624Z,74.70
2022-09-23T17:13:17.284Z,74.72
2022-09-23T17:15:44.046Z,75.17
2022-09-23T17:18:10.453Z,75.46
2022-09-23T17:20:38.605Z,75.60
2022-09-23T17:23:05.483Z,75.58
2022-09-23T17:25:33.912Z,76.17
2022-09-23T17:28:00.770Z,76.36
2022-09-23T17:30:27.475Z,76.22
2022-09-23T17:32:53.784Z,76.38
2022-09-23T17:35:20.499Z,76.43
2022-09-23T17:37:47.544Z,76.35
2022-09-23T17:40:13.983Z,76.83
2022-09-23T17:42:44.570Z,77.47
2022-09-23T17:45:12.380Z,77.55
2022-09-23T17:47:41.705Z,77.59
2022-09-23T17:50:08.569Z,77.77
2022-09-23T17:52:34.976Z,77.56
2022-09-23T17:55:01.318Z,77.76
2022-09-23T17:57:27.744Z,77.59
2022-09-23T17:59:54.045Z,77.96
2022-09-23T18:02:23.291Z,78.06
2022-09-23T18:04:49.757Z,78.04
2022-09-23T18:07:16.303Z,78.63
2022-09-23T18:09:42.660Z,78.82
2022-09-23T18:12:09.048Z,78.79
2022-09-23T18:14:35.379Z,78.47
2022-09-23T18:17:01.755Z,78.26
2022-09-23T18:19:28.067Z,78.61
2022-09-23T18:21:57.093Z,78.87
2022-09-23T18:24:33.180Z,78.68
2022-09-23T18:27:01.016Z,78.92
2022-09-23T18:29:27.581Z,79.08
2022-09-23T18:31:54.099Z,78.98
2022-09-23T18:34:20.579Z,79.40
2022-09-23T18:36:47.038Z,79.43
2022-09-23T18:39:13.434Z,79.63
2022-09-23T18:41:40.898Z,79.80
2022-09-23T18:44:07.350Z,79.54
2022-09-23T18:46:33.809Z,80.02
2022-09-23T18:49:18.973Z,80.15
2022-09-23T18:51:54.473Z,80.09
2022-09-23T18:54:22.340Z,80.15
2022-09-23T18:56:49.876Z,80.04
2022-09-23T18:59:19.404Z,80.02
2022-09-23T19:01:47.267Z,80.13
2022-09-23T19:04:16.934Z,80.32
2022-09-23T19:06:43.324Z,80.30
2022-09-23T19:09:11.884Z,80.32
2022-09-23T19:11:38.881Z,80.19
2022-09-23T19:14:09.859Z,80.45
2022-09-23T19:16:37.697Z,80.17
2022-09-23T19:19:05.359Z,80.67
2022-09-23T19:21:32.867Z,81.20
2022-09-23T19:24:05.180Z,81.67
2022-09-23T19:26:36.608Z,81.72
2022-09-23T19:29:04.439Z,81.88
2022-09-23T19:31:33.908Z,82.13
2022-09-23T19:34:02.785Z,81.96
2022-09-23T19:36:34.430Z,82.28
2022-09-23T19:39:03.124Z,82.33
2022-09-23T19:41:32.089Z,82.38
2022-09-23T19:44:02.923Z,82.46
2022-09-23T19:46:33.900Z,82.28
2022-09-23T19:49:00.887Z,82.03
2022-09-23T19:51:28.195Z,82.11
2022-09-23T19:53:54.513Z,82.31
2022-09-23T19:56:20.869Z,82.68
2022-09-23T19:58:51.385Z,82.67
2022-09-23T20:01:18.708Z,82.50
2022-09-23T20:03:46.822Z,82.63
2022-09-23T20:06:14.503Z,82.78
2022-09-23T20:08:41.298Z,82.85
2022-09-23T20:11:13.232Z,82.89
2022-09-23T20:13:41.008Z,83.11
2022-09-23T20:16:12.107Z,83.12
2022-09-23T20:18:38.957Z,83.16
2022-09-23T20:21:06.612Z,83.08
2022-09-23T20:23:33.081Z,83.12
2022-09-23T20:26:19.578Z,83.25
2022-09-23T20:28:46.518Z,83.66
2022-09-23T20:31:14.163Z,83.75
2022-09-23T20:33:43.769Z,83.83
2022-09-23T20:36:13.111Z,83.55
2022-09-23T20:38:40.355Z,83.50
2022-09-23T20:41:07.292Z,83.63
2022-09-23T20:43:34.454Z,83.86
2022-09-23T20:46:02.847Z,83.76
2022-09-23T20:48:30.479Z,83.74
2022-09-23T20:51:04.967Z,84.00
2022-09-23T20:53:32.252Z,83.82
2022-09-23T20:55:59.448Z,84.12
2022-09-23T20:58:27.647Z,84.30
2022-09-23T21:00:59.116Z,84.35
2022-09-23T21:03:26.516Z,84.59
2022-09-23T21:05:52.829Z,84.57
2022-09-23T21:08:19.507Z,84.43
2022-09-23T21:10:56.749Z,84.48
2022-09-23T21:13:23.480Z,84.39
2022-09-23T21:15:50.143Z,84.50
2022-09-23T21:18:21.704Z,84.54
2022-09-23T21:20:55.978Z,84.71
2022-09-23T21:23:36.265Z,84.65
2022-09-23T21:26:11.067Z,84.56
2022-09-23T21:28:45.497Z,84.57
2022-09-23T21:31:23.903Z,84.64
2022-09-23T21:34:04.955Z,84.48
2022-09-23T21:36:34.455Z,84.58
2022-09-23T21:39:04.328Z,84.53
2022-09-23T21:41:31.711Z,84.59
2022-09-23T21:43:59.245Z,84.61
2022-09-23T21:46:26.692Z,84.60
2022-09-23T21:48:54.928Z,84.70
2022-09-23T21:51:24.681Z,84.63
2022-09-23T21:53:52.784Z,84.74
2022-09-23T21:56:30.228Z,84.52
2022-09-23T21:58:58.336Z,84.56
2022-09-23T22:01:30.202Z,84.51
2022-09-23T22:03:58.832Z,84.51
2022-09-23T22:06:27.538Z,84.77
2022-09-23T22:08:59.714Z,85.00
2022-09-23T22:12:03.742Z,85.10
2022-09-23T22:14:30.537Z,84.92
2022-09-23T22:17:02.627Z,85.04
2022-09-23T22:19:42.693Z,85.25
2022-09-23T22:22:14.714Z,85.04
2022-09-23T22:24:42.280Z,85.25
2022-09-23T22:27:10.193Z,85.27
2022-09-23T22:30:05.854Z,85.35
2022-09-23T22:32:34.797Z,85.27
2022-09-23T22:35:01.130Z,85.39
2022-09-23T22:37:30.441Z,85.59
2022-09-23T22:39:56.942Z,85.45
2022-09-23T22:42:23.619Z,85.67
2022-09-23T22:44:50.885Z,85.52
2022-09-23T22:47:18.331Z,85.52
2022-09-23T22:49:46.073Z,85.27
2022-09-23T22:52:12.526Z,85.26
2022-09-23T22:54:38.952Z,85.45
2022-09-23T22:57:09.004Z,85.58
2022-09-23T22:59:37.141Z,85.78
2022-09-23T23:02:03.749Z,85.42
2022-09-23T23:04:30.434Z,85.44
2022-09-23T23:06:58.544Z,85.49
2022-09-23T23:09:24.922Z,85.77
2022-09-23T23:11:51.236Z,85.81
2022-09-23T23:14:19.009Z,85.86
2022-09-23T23:16:46.295Z,86.26
2022-09-23T23:19:14.724Z,86.25
2022-09-23T23:21:44.766Z,86.12
2022-09-23T23:24:22.482Z,86.32
2022-09-23T23:26:49.538Z,86.43
2022-09-23T23:29:17.552Z,86.55
2022-09-23T23:31:44.461Z,86.42
2022-09-23T23:34:16.181Z,86.45
2022-09-23T23:36:43.729Z,86.31
2022-09-23T23:39:10.935Z,86.90
2022-09-23T23:41:39.382Z,86.70
2022-09-23T23:44:06.367Z,86.78
2022-09-23T23:46:33.774Z,86.87
2022-09-23T23:49:00.664Z,86.71
2022-09-23T23:51:27.975Z,86.49
2022-09-23T23:53:55.298Z,86.53
2022-09-23T23:56:24.093Z,86.92
2022-09-23T23:58:55.762Z,86.70
